createdAt,value
2022-09-30T00:01:09.468Z,100204.91
2022-09-30T00:03:56.587Z,100206.59
2022-09-30T00:06:37.465Z,100210.13
2022-09-30T00:09:31.492Z,100214.94
2022-09-30T00:12:11.908Z,100196.53
2022-09-30T00:14:58.510Z,100208.53
2022-09-30T00:17:38.926Z,100206.94
2022-09-30T00:20:26.455Z,100209.34
2022-09-30T00:23:06.805Z,100216.38
2022-09-30T00:25:53.431Z,100223.59
2022-09-30T00:28:48.446Z,100225.09
2022-09-30T00:31:32.480Z,100220.22
2022-09-30T00:34:19.438Z,100221.81
2022-09-30T00:37:02.910Z,100231.69
2022-09-30T00:39:49.436Z,100228.91
2022-09-30T00:42:36.425Z,100232.41
2022-09-30T00:45:27.430Z,100223.97
2022-09-30T00:48:20.443Z,100238.41
2022-09-30T00:51:07.444Z,100245.63
2022-09-30T00:54:23.426Z,100246.59
2022-09-30T00:57:08.577Z,100243.34
2022-09-30T00:59:58.412Z,100243.84
2022-09-30T01:02:45.410Z,100249.41
2022-09-30T01:05:34.424Z,100244.16
2022-09-30T01:08:24.413Z,100247.00
2022-09-30T01:11:08.145Z,100249.75
2022-09-30T01:13:58.419Z,100244.19
2022-09-30T01:17:00.751Z,100243.75
2022-09-30T01:20:04.394Z,100241.38
2022-09-30T01:23:45.176Z,100240.97
2022-09-30T01:26:41.377Z,100242.38
2022-09-30T01:29:57.725Z,100242.47
2022-09-30T01:33:21.390Z,100238.38
2022-09-30T01:36:39.884Z,100236.22
2022-09-30T01:39:55.340Z,100246.56
2022-09-30T01:42:58.396Z,100248.53
2022-09-30T01:46:04.457Z,100235.78
2022-09-30T01:48:56.403Z,100238.19
2022-09-30T01:51:44.722Z,100241.78
2022-09-30T01:54:49.359Z,100243.22
2022-09-30T01:57:52.441Z,100244.34
2022-09-30T02:00:44.412Z,100260.31
2022-09-30T02:03:31.277Z,100264.06
2022-09-30T02:06:32.363Z,100262.00
2022-09-30T02:09:24.645Z,100257.31
2022-09-30T02:12:16.345Z,100262.13
2022-09-30T02:15:12.358Z,100268.88
2022-09-30T02:17:58.624Z,100274.25
2022-09-30T02:20:49.311Z,100278.63
2022-09-30T02:23:35.315Z,100283.38
2022-09-30T02:26:26.287Z,100289.56
2022-09-30T02:29:19.578Z,100293.47
2022-09-30T02:32:05.289Z,100288.50
2022-09-30T02:34:58.344Z,100303.59
2022-09-30T02:38:06.293Z,100302.59
2022-09-30T02:41:06.277Z,100297.31
2022-09-30T02:43:53.296Z,100304.50
2022-09-30T02:46:39.672Z,100308.03
2022-09-30T02:49:35.290Z,100300.78
2022-09-30T02:52:36.268Z,100306.41
2022-09-30T02:55:34.384Z,100304.09
2022-09-30T02:58:24.270Z,100303.69
2022-09-30T03:01:11.339Z,100312.88
2022-09-30T03:04:03.396Z,100302.81
2022-09-30T03:26:00.865Z,100307.19
2022-09-30T03:29:15.026Z,100323.00
2022-09-30T03:32:09.845Z,100334.34
2022-09-30T03:35:02.888Z,100329.66
2022-09-30T03:38:17.847Z,100332.56
2022-09-30T03:41:12.896Z,100324.53
2022-09-30T03:44:02.264Z,100326.59
2022-09-30T03:46:53.898Z,100324.91
2022-09-30T03:49:39.960Z,100318.03
2022-09-30T03:52:27.843Z,100332.31
2022-09-30T03:55:11.807Z,100333.31
2022-09-30T03:57:58.830Z,100335.97
2022-09-30T04:00:45.936Z,100341.38
2022-09-30T04:03:34.814Z,100333.03
2022-09-30T04:06:26.828Z,100342.28
2022-09-30T04:09:07.316Z,100340.19
2022-09-30T04:11:53.841Z,100335.81
2022-09-30T04:14:34.634Z,100343.44
2022-09-30T04:17:21.822Z,100351.84
2022-09-30T04:20:02.906Z,100355.25
2022-09-30T04:22:49.819Z,100354.22
2022-09-30T04:25:43.802Z,100366.41
2022-09-30T04:28:30.816Z,100369.47
2022-09-30T04:31:13.046Z,100375.81
2022-09-30T04:33:59.829Z,100369.31
2022-09-30T04:36:39.904Z,100369.91
2022-09-30T04:39:26.805Z,100386.88
2022-09-30T04:42:07.214Z,100390.94
2022-09-30T04:44:54.815Z,100400.09
2022-09-30T04:47:41.808Z,100408.63
2022-09-30T04:50:22.326Z,100402.53
2022-09-30T04:53:08.822Z,100415.25
2022-09-30T04:55:55.798Z,100411.81
2022-09-30T04:58:37.175Z,100420.00
2022-09-30T05:01:25.750Z,100414.00
2022-09-30T05:04:05.874Z,100421.81
2022-09-30T05:06:52.762Z,100422.72
2022-09-30T05:09:32.919Z,100417.38
2022-09-30T05:12:19.802Z,100412.47
2022-09-30T05:14:59.856Z,100408.16
2022-09-30T05:17:46.762Z,100410.50
2022-09-30T05:20:33.754Z,100409.50
2022-09-30T05:23:20.758Z,100400.50
2022-09-30T05:26:11.998Z,100407.72
2022-09-30T05:28:53.213Z,100408.19
2022-09-30T05:31:39.856Z,100413.53
2022-09-30T05:34:27.719Z,100413.09
2022-09-30T05:37:08.811Z,100409.06
2022-09-30T05:39:55.730Z,100412.56
2022-09-30T05:42:37.810Z,100420.66
2022-09-30T05:45:24.735Z,100401.88
2022-09-30T05:48:04.824Z,100398.75
2022-09-30T05:50:56.748Z,100395.47
2022-09-30T05:53:47.739Z,100402.97
2022-09-30T05:56:34.712Z,100405.00
2022-09-30T05:59:21.730Z,100405.28
2022-09-30T06:02:02.188Z,100408.59
2022-09-30T06:04:48.746Z,100407.09
2022-09-30T06:07:29.063Z,100417.94
2022-09-30T06:10:18.720Z,100420.69
2022-09-30T06:12:59.233Z,100440.38
2022-09-30T06:15:46.741Z,100443.94
2022-09-30T06:18:28.409Z,100434.81
2022-09-30T06:21:16.687Z,100434.00
2022-09-30T06:24:10.711Z,100432.94
2022-09-30T06:26:57.700Z,100449.28
2022-09-30T06:29:38.471Z,100448.34
2022-09-30T06:32:25.737Z,100450.22
2022-09-30T06:35:05.775Z,100458.63
2022-09-30T06:37:52.692Z,100472.13
2022-09-30T06:40:32.884Z,100476.75
2022-09-30T06:43:20.722Z,100481.84
2022-09-30T06:46:12.447Z,100474.81
2022-09-30T06:49:12.895Z,100479.88
2022-09-30T06:51:53.816Z,100483.88
2022-09-30T06:54:40.666Z,100493.41
2022-09-30T06:57:22.973Z,100505.44
2022-09-30T07:00:10.674Z,100510.75
2022-09-30T07:02:50.816Z,100509.63
2022-09-30T07:05:37.629Z,100514.81
2022-09-30T07:08:24.635Z,100512.88
2022-09-30T07:11:17.743Z,100521.38
2022-09-30T07:13:57.668Z,100529.50
2022-09-30T07:16:38.572Z,100533.78
2022-09-30T07:19:29.638Z,100534.34
2022-09-30T07:22:36.641Z,100526.94
2022-09-30T07:25:23.662Z,100521.84
2022-09-30T07:28:03.994Z,100528.91
2022-09-30T07:30:50.631Z,100519.03
2022-09-30T07:33:38.650Z,100529.25
2022-09-30T07:36:32.227Z,100518.75
2022-09-30T07:39:12.995Z,100520.47
2022-09-30T07:41:59.638Z,100516.88
2022-09-30T07:44:41.905Z,100519.91
2022-09-30T07:47:29.628Z,100526.28
2022-09-30T07:50:17.594Z,100533.16
2022-09-30T07:53:06.608Z,100523.34
2022-09-30T07:55:57.633Z,100524.50
2022-09-30T07:58:37.709Z,100515.00
2022-09-30T08:01:24.689Z,100522.88
2022-09-30T08:04:07.741Z,100525.31
2022-09-30T08:06:59.567Z,100533.34
2022-09-30T08:09:46.662Z,100534.56
2022-09-30T08:12:27.041Z,100538.88
2022-09-30T08:15:16.635Z,100529.63
2022-09-30T08:17:56.943Z,100529.53
2022-09-30T08:20:43.636Z,100517.13
2022-09-30T08:23:24.009Z,100523.25
2022-09-30T08:26:18.584Z,100529.38
2022-09-30T08:28:59.013Z,100531.56
2022-09-30T08:31:46.651Z,100531.66
2022-09-30T08:34:27.090Z,100540.31
2022-09-30T08:37:13.576Z,100541.81
2022-09-30T08:40:00.591Z,100548.69
2022-09-30T08:42:56.867Z,100545.97
2022-09-30T08:45:58.541Z,100555.66
2022-09-30T08:48:45.585Z,100560.56
2022-09-30T08:51:44.638Z,100555.84
2022-09-30T08:54:40.258Z,100569.66
2022-09-30T08:57:29.658Z,100577.53
2022-09-30T09:00:12.720Z,100577.16
2022-09-30T09:03:03.595Z,100584.19
2022-09-30T09:06:32.566Z,100567.72
2022-09-30T09:09:50.130Z,100569.03
2022-09-30T09:12:58.580Z,100590.59
2022-09-30T09:16:20.386Z,100584.72
2022-09-30T09:19:19.539Z,100593.75
2022-09-30T09:22:09.519Z,100588.59
2022-09-30T09:24:57.693Z,100585.44
2022-09-30T09:28:03.628Z,100596.16
2022-09-30T09:30:51.652Z,100583.47
2022-09-30T09:33:46.562Z,100596.44
2022-09-30T09:36:49.687Z,100590.78
2022-09-30T09:40:04.327Z,100589.59
2022-09-30T09:43:19.545Z,100576.47
2022-09-30T09:46:15.937Z,100577.78
2022-09-30T09:49:02.519Z,100583.66
2022-09-30T09:52:30.509Z,100571.69
2022-09-30T09:55:11.441Z,100570.44
2022-09-30T09:58:24.499Z,100577.63
2022-09-30T10:01:32.951Z,100576.91
2022-09-30T10:04:26.487Z,100572.81
2022-09-30T10:07:16.507Z,100568.97
2022-09-30T10:10:24.356Z,100564.13
2022-09-30T10:13:11.589Z,100563.69
2022-09-30T10:16:01.595Z,100570.34
2022-09-30T10:18:50.499Z,100575.41
2022-09-30T10:21:37.612Z,100572.53
2022-09-30T10:24:33.490Z,100580.09
2022-09-30T10:27:45.484Z,100577.31
2022-09-30T10:30:45.442Z,100577.59
2022-09-30T10:33:28.596Z,100578.81
2022-09-30T10:36:21.454Z,100568.88
2022-09-30T10:39:14.564Z,100560.63
2022-09-30T10:42:10.487Z,100568.13
2022-09-30T10:45:02.018Z,100564.66
2022-09-30T10:47:55.470Z,100558.66
2022-09-30T10:50:35.599Z,100554.22
2022-09-30T10:53:33.451Z,100554.47
2022-09-30T10:56:13.633Z,100557.56
2022-09-30T10:59:03.474Z,100555.47
2022-09-30T11:01:52.664Z,100549.22
2022-09-30T11:04:47.442Z,100560.19
2022-09-30T11:07:39.437Z,100556.16
2022-09-30T11:10:44.450Z,100562.03
2022-09-30T11:13:43.462Z,100558.38
2022-09-30T11:16:57.941Z,100562.38
2022-09-30T11:19:48.447Z,100557.06
2022-09-30T11:23:04.601Z,100558.47
2022-09-30T11:26:07.455Z,100573.59
2022-09-30T11:29:36.515Z,100557.28
2022-09-30T11:32:39.798Z,100570.88
2022-09-30T11:35:48.422Z,100569.81
2022-09-30T11:38:57.021Z,100560.91
2022-09-30T11:42:12.418Z,100571.53
2022-09-30T11:45:16.648Z,100586.03
2022-09-30T11:48:17.422Z,100582.22
2022-09-30T11:50:57.772Z,100580.94
2022-09-30T11:54:26.397Z,100579.22
2022-09-30T11:57:09.750Z,100583.63
2022-09-30T12:00:14.393Z,100578.94
2022-09-30T12:03:10.273Z,100574.97
2022-09-30T12:05:59.550Z,100576.34
2022-09-30T12:08:57.878Z,100582.47
2022-09-30T12:11:46.506Z,100579.16
2022-09-30T12:14:57.378Z,100578.97
2022-09-30T12:17:52.369Z,100584.50
2022-09-30T12:20:45.366Z,100580.66
2022-09-30T12:23:37.509Z,100578.97
2022-09-30T12:26:25.363Z,100577.81
2022-09-30T12:30:06.392Z,100567.97
2022-09-30T12:33:13.872Z,100576.34
2022-09-30T12:36:20.348Z,100580.06
2022-09-30T12:39:45.352Z,100584.16
2022-09-30T12:43:00.342Z,100588.28
2022-09-30T12:46:14.561Z,100596.66
2022-09-30T12:49:22.361Z,100595.44
2022-09-30T12:52:21.306Z,100589.72
2022-09-30T12:55:32.317Z,100590.50
2022-09-30T12:58:27.302Z,100603.69
2022-09-30T13:01:23.487Z,100596.16
2022-09-30T13:04:06.471Z,100599.84
2022-09-30T13:06:53.281Z,100587.84
2022-09-30T13:10:04.322Z,100592.28
2022-09-30T13:12:52.885Z,100595.59
2022-09-30T13:15:43.345Z,100597.53
2022-09-30T13:18:26.893Z,100602.38
2022-09-30T13:21:19.337Z,100613.63
2022-09-30T13:24:07.347Z,100620.06
2022-09-30T13:27:01.297Z,100621.69
2022-09-30T13:29:55.304Z,100616.47
2022-09-30T13:32:43.738Z,100623.81
2022-09-30T13:35:58.325Z,100627.84
2022-09-30T13:38:54.349Z,100613.47
2022-09-30T13:41:44.437Z,100615.09
2022-09-30T13:44:35.465Z,100617.09
2022-09-30T13:47:32.284Z,100611.06
2022-09-30T13:50:24.452Z,100608.63
2022-09-30T13:53:22.638Z,100616.69
2022-09-30T13:56:05.378Z,100613.88
2022-09-30T13:59:01.273Z,100628.75
2022-09-30T14:01:54.535Z,100630.75
2022-09-30T14:05:09.574Z,100630.34
2022-09-30T14:08:08.296Z,100638.41
2022-09-30T14:11:07.228Z,100628.41
2022-09-30T14:14:35.399Z,100636.41
2022-09-30T14:18:22.960Z,100633.22
2022-09-30T14:21:36.290Z,100616.75
2022-09-30T14:24:41.258Z,100626.38
2022-09-30T14:27:46.483Z,100618.75
2022-09-30T14:30:41.262Z,100610.69
2022-09-30T14:33:28.340Z,100616.28
2022-09-30T14:39:22.620Z,100614.69
2022-09-30T14:42:14.226Z,100624.31
2022-09-30T14:44:56.105Z,100613.50
2022-09-30T14:47:45.240Z,100617.09
2022-09-30T14:50:38.228Z,100621.09
2022-09-30T14:53:36.331Z,100619.91
2022-09-30T14:56:36.415Z,100627.97
2022-09-30T14:59:33.181Z,100624.72
2022-09-30T15:02:27.291Z,100627.56
2022-09-30T15:05:07.626Z,100640.84
2022-09-30T15:07:54.207Z,100630.38
2022-09-30T15:10:34.299Z,100645.25
2022-09-30T15:27:59.937Z,100667.28
2022-09-30T15:30:43.237Z,100671.72
2022-09-30T15:33:33.863Z,100670.16
2022-09-30T15:36:23.846Z,100676.22
2022-09-30T15:39:18.885Z,100676.59
2022-09-30T15:41:59.806Z,100675.78
2022-09-30T15:44:51.935Z,100673.78
2022-09-30T15:47:38.870Z,100684.22
2022-09-30T15:50:43.965Z,100690.66
2022-09-30T15:53:32.844Z,100692.59
2022-09-30T15:56:33.155Z,100701.44
2022-09-30T15:59:14.841Z,100706.25
2022-09-30T16:02:04.897Z,100711.06
2022-09-30T16:04:52.148Z,100711.06
2022-09-30T16:07:38.819Z,100708.66
2022-09-30T16:10:27.890Z,100719.88
2022-09-30T16:13:07.961Z,100724.69
2022-09-30T16:15:54.847Z,100723.91
2022-09-30T16:18:44.840Z,100728.31
2022-09-30T16:21:50.896Z,100727.50
2022-09-30T16:24:38.857Z,100729.91
2022-09-30T16:27:39.790Z,100730.22
2022-09-30T16:30:26.830Z,100737.03
2022-09-30T16:33:12.074Z,100746.69
2022-09-30T16:35:58.836Z,100750.25
2022-09-30T16:38:39.007Z,100748.69
2022-09-30T16:41:25.782Z,100752.69
2022-09-30T16:44:06.066Z,100743.88
2022-09-30T16:46:52.823Z,100743.06
2022-09-30T16:49:34.691Z,100743.09
2022-09-30T16:52:22.008Z,100751.53
2022-09-30T16:55:02.077Z,100744.69
2022-09-30T16:57:48.795Z,100753.50
2022-09-30T17:00:35.858Z,100750.31
2022-09-30T17:03:18.530Z,100749.88
2022-09-30T17:06:04.769Z,100755.88
2022-09-30T17:08:51.802Z,100765.94
2022-09-30T17:11:33.869Z,100759.50
2022-09-30T17:14:23.799Z,100765.47
2022-09-30T17:17:13.786Z,100770.28
2022-09-30T17:20:00.821Z,100765.88
2022-09-30T17:22:40.877Z,100776.31
2022-09-30T17:25:27.772Z,100778.34
2022-09-30T17:28:16.927Z,100772.34
2022-09-30T17:30:56.787Z,100778.78
2022-09-30T17:33:40.263Z,100771.97
2022-09-30T17:36:26.850Z,100779.84
2022-09-30T17:39:13.743Z,100776.56
2022-09-30T17:42:18.771Z,100779.69
2022-09-30T17:44:59.632Z,100772.94
2022-09-30T17:47:47.740Z,100779.00
2022-09-30T17:50:28.140Z,100775.31
2022-09-30T17:53:14.723Z,100781.72
2022-09-30T17:56:19.021Z,100785.38
2022-09-30T17:59:08.729Z,100792.16
2022-09-30T18:01:50.769Z,100796.13
2022-09-30T18:04:37.950Z,100789.75
2022-09-30T18:07:21.060Z,100799.75
2022-09-30T18:10:07.708Z,100788.09
2022-09-30T18:12:49.630Z,100790.50
2022-09-30T18:15:36.733Z,100783.69
2022-09-30T18:18:23.738Z,100796.88
2022-09-30T18:21:03.909Z,100801.69
2022-09-30T18:23:50.699Z,100804.84
2022-09-30T18:26:38.698Z,100806.41
2022-09-30T18:29:24.155Z,100812.03
2022-09-30T18:32:10.732Z,100812.44
2022-09-30T18:34:57.696Z,100807.16
2022-09-30T18:37:37.807Z,100803.06
2022-09-30T18:40:26.711Z,100813.97
2022-09-30T18:43:17.661Z,100813.44
2022-09-30T18:46:04.749Z,100812.63
2022-09-30T18:48:51.692Z,100815.00
2022-09-30T18:51:32.400Z,100826.13
2022-09-30T18:54:22.672Z,100822.94
2022-09-30T18:57:09.672Z,100824.91
2022-09-30T18:59:49.800Z,100819.25
2022-09-30T19:02:37.631Z,100819.94
2022-09-30T19:05:19.754Z,100819.78
2022-09-30T19:08:06.668Z,100810.22
2022-09-30T19:10:47.387Z,100818.94
2022-09-30T19:13:35.634Z,100811.78
2022-09-30T19:16:26.641Z,100810.78
2022-09-30T19:19:10.298Z,100826.84
2022-09-30T19:21:56.680Z,100827.69
2022-09-30T19:24:38.066Z,100826.88
2022-09-30T19:27:24.715Z,100828.03
2022-09-30T19:30:12.616Z,100837.63
2022-09-30T19:32:56.731Z,100832.47
2022-09-30T19:35:43.635Z,100836.13
2022-09-30T19:38:33.400Z,100842.19
2022-09-30T19:41:23.627Z,100843.31
2022-09-30T19:44:03.757Z,100847.78
2022-09-30T19:46:50.618Z,100844.91
2022-09-30T19:49:31.166Z,100851.59
2022-09-30T19:52:21.876Z,100858.38
2022-09-30T19:55:12.709Z,100864.31
2022-09-30T19:58:02.592Z,100867.09
2022-09-30T20:00:42.798Z,100862.94
2022-09-30T20:03:31.611Z,100861.47
2022-09-30T20:06:17.815Z,100877.50
2022-09-30T20:09:06.571Z,100869.38
2022-09-30T20:11:46.796Z,100866.72
2022-09-30T20:14:52.588Z,100868.94
2022-09-30T20:17:34.928Z,100864.09
2022-09-30T20:20:40.585Z,100862.63
2022-09-30T20:23:22.441Z,100861.81
2022-09-30T20:26:09.635Z,100861.81
2022-09-30T20:28:49.643Z,100859.78
2022-09-30T20:31:36.803Z,100858.13
2022-09-30T20:34:20.245Z,100852.34
2022-09-30T20:37:00.576Z,100856.66
2022-09-30T20:39:48.558Z,100853.63
2022-09-30T20:42:29.514Z,100858.34
2022-09-30T20:45:18.607Z,100859.78
2022-09-30T20:48:05.520Z,100859.78
2022-09-30T20:50:48.497Z,100864.88
2022-09-30T20:53:35.549Z,100871.56
2022-09-30T20:56:16.294Z,100879.06
2022-09-30T20:59:03.521Z,100881.28
2022-09-30T21:01:44.027Z,100889.56
2022-09-30T21:04:30.520Z,100890.19
2022-09-30T21:07:10.982Z,100891.72
2022-09-30T21:09:57.535Z,100902.31
2022-09-30T21:12:44.522Z,100909.84
2022-09-30T21:15:31.545Z,100908.03
2022-09-30T21:18:12.221Z,100898.59
2022-09-30T21:20:58.515Z,100894.41
2022-09-30T21:23:40.066Z,100889.31
2022-09-30T21:26:29.482Z,100895.97
2022-09-30T21:29:09.898Z,100902.50
2022-09-30T21:31:56.555Z,100894.91
2022-09-30T21:34:36.927Z,100894.25
2022-09-30T21:37:24.495Z,100895.13
2022-09-30T21:40:05.202Z,100905.41
2022-09-30T21:42:51.563Z,100896.63
2022-09-30T21:45:31.953Z,100910.91
2022-09-30T21:48:20.512Z,100913.50
2022-09-30T21:51:01.990Z,100920.66
2022-09-30T21:53:48.479Z,100913.75
2022-09-30T21:56:29.453Z,100930.63
2022-09-30T21:59:16.466Z,100929.81
2022-09-30T22:02:03.542Z,100936.47
2022-09-30T22:04:51.481Z,100937.19
2022-09-30T22:07:33.031Z,100943.84
2022-09-30T22:10:19.453Z,100952.25
2022-09-30T22:12:59.902Z,100945.88
2022-09-30T22:15:53.450Z,100950.25
2022-09-30T22:18:40.474Z,100952.66
2022-09-30T22:21:21.631Z,100955.66
2022-09-30T22:24:10.447Z,100964.41
2022-09-30T22:26:51.267Z,100959.84
2022-09-30T22:29:39.423Z,100960.94
2022-09-30T22:32:19.609Z,100971.63
2022-09-30T22:35:24.472Z,100969.25
2022-09-30T22:38:23.412Z,100966.09
2022-09-30T22:41:03.877Z,100956.31
2022-09-30T22:43:50.659Z,100955.50
2022-09-30T22:46:33.745Z,100953.22
2022-09-30T22:49:20.517Z,100956.47
2022-09-30T22:52:02.145Z,100951.66
2022-09-30T22:54:50.505Z,100952.56
2022-09-30T22:57:31.189Z,100952.94
2022-09-30T23:00:19.439Z,100951.47
2022-09-30T23:02:59.782Z,100953.91
2022-09-30T23:05:46.441Z,100961.53
2022-09-30T23:08:34.619Z,100965.75
2022-09-30T23:11:26.433Z,100969.06
2022-09-30T23:14:06.792Z,100974.50
2022-09-30T23:16:54.427Z,100974.66
2022-09-30T23:19:41.531Z,100968.34
2022-09-30T23:22:21.407Z,100971.22
2022-09-30T23:25:09.593Z,100959.16
2022-09-30T23:28:03.475Z,100962.91
2022-09-30T23:30:50.384Z,100968.88
2022-09-30T23:33:30.511Z,100976.25
2022-09-30T23:36:18.389Z,100972.22
2022-09-30T23:39:02.941Z,100977.47
2022-09-30T23:41:52.356Z,100984.09
2022-09-30T23:44:32.499Z,100982.66
2022-09-30T23:47:25.381Z,100981.31
2022-09-30T23:50:05.563Z,100987.59
2022-09-30T23:52:52.375Z,100986.50
2022-09-30T23:55:34.448Z,100982.19
2022-09-30T23:58:21.446Z,100991.31
